Time;durP1;ratioP1;P1;durP2;ratioP2;P2;SDS_P1;SDS_P2;PMS_P1;PMS_P2;Temp;Humidity;BMP_temperature;BMP_pressure;BME280_temperature;BME280_humidity;BME280_pressure;Samples;Min_cycle;Max_cycle;Signal;HPM_P1;HPM_P2
2022/03/18 00:02:14;;;;;;;16.63;6.18;;;;;;;;;;4972016;28;92452;-67
2022/03/18 00:04:41;;;;;;;20.45;5.82;;;;;;;;;;4965972;28;93337;-67
2022/03/18 00:07:08;;;;;;;16.08;6.00;;;;;;;;;;4966844;28;96229;-67
2022/03/18 00:09:34;;;;;;;12.50;6.07;;;;;;;;;;4960605;28;92569;-67
2022/03/18 00:12:00;;;;;;;17.55;6.70;;;;;;;;;;4974832;28;93241;-67
2022/03/18 00:14:27;;;;;;;15.07;5.95;;;;;;;;;;4967073;28;93623;-67
2022/03/18 00:16:53;;;;;;;18.80;4.82;;;;;;;;;;4972255;28;94391;-67
2022/03/18 00:19:19;;;;;;;13.05;4.88;;;;;;;;;;4956065;28;93514;-66
2022/03/18 00:21:46;;;;;;;19.40;6.07;;;;;;;;;;4958541;28;92488;-67
2022/03/18 00:24:12;;;;;;;17.80;5.00;;;;;;;;;;4967984;28;93158;-67
2022/03/18 00:26:39;;;;;;;16.67;4.85;;;;;;;;;;4971785;28;92444;-67
2022/03/18 00:29:05;;;;;;;15.23;4.68;;;;;;;;;;4971322;28;92456;-67
2022/03/18 00:31:31;;;;;;;12.75;4.80;;;;;;;;;;4960264;28;95181;-67
2022/03/18 00:33:58;;;;;;;8.15;4.03;;;;;;;;;;4974685;28;93924;-67
2022/03/18 00:36:24;;;;;;;13.23;5.10;;;;;;;;;;4964278;28;93404;-67
2022/03/18 00:38:50;;;;;;;12.55;4.40;;;;;;;;;;4970850;28;93240;-67
2022/03/18 00:41:18;;;;;;;10.10;4.30;;;;;;;;;;4971956;28;92605;-67
2022/03/18 00:43:44;;;;;;;14.55;4.65;;;;;;;;;;4971955;28;92997;-67
2022/03/18 00:46:11;;;;;;;10.70;4.38;;;;;;;;;;4971779;28;94315;-67
2022/03/18 00:54:27;;;;;;;10.73;3.95;;;;;;;;;;4968470;28;94021;-67
2022/03/18 00:56:53;;;;;;;17.80;5.07;;;;;;;;;;4970023;28;94980;-67
2022/03/18 00:59:19;;;;;;;15.07;4.68;;;;;;;;;;4967693;28;92546;-67
2022/03/18 01:01:46;;;;;;;17.58;4.38;;;;;;;;;;4966484;28;93136;-67
2022/03/18 01:04:12;;;;;;;14.63;4.55;;;;;;;;;;4969374;28;93521;-67
2022/03/18 01:06:38;;;;;;;11.15;4.78;;;;;;;;;;4967170;28;93903;-67
2022/03/18 01:09:05;;;;;;;10.60;4.35;;;;;;;;;;4955170;28;92734;-66
2022/03/18 01:11:32;;;;;;;15.07;4.20;;;;;;;;;;4968267;28;93330;-67
2022/03/18 01:13:58;;;;;;;9.23;4.05;;;;;;;;;;4968679;28;92563;-66
2022/03/18 01:16:24;;;;;;;12.00;3.90;;;;;;;;;;4973299;28;92951;-66
2022/03/18 01:18:51;;;;;;;13.70;4.78;;;;;;;;;;4968868;28;93031;-67
2022/03/18 01:21:17;;;;;;;7.22;4.38;;;;;;;;;;4960217;28;96640;-66
2022/03/18 01:23:43;;;;;;;9.63;4.53;;;;;;;;;;4958143;28;95809;-67
2022/03/18 01:26:10;;;;;;;12.05;4.82;;;;;;;;;;4969315;28;93238;-66
2022/03/18 01:28:36;;;;;;;10.70;4.93;;;;;;;;;;4973179;28;93121;-67
2022/03/18 01:31:02;;;;;;;16.27;4.93;;;;;;;;;;4972228;28;94596;-66
2022/03/18 01:33:29;;;;;;;12.20;4.70;;;;;;;;;;4974714;28;94556;-66
2022/03/18 01:35:55;;;;;;;15.45;4.70;;;;;;;;;;4973283;28;92714;-66
2022/03/18 01:38:21;;;;;;;11.30;4.72;;;;;;;;;;4978531;28;92995;-67
2022/03/18 01:40:47;;;;;;;10.05;4.55;;;;;;;;;;4971716;28;92684;-67
2022/03/18 01:43:14;;;;;;;12.18;4.93;;;;;;;;;;4973210;28;93149;-66
2022/03/18 01:45:40;;;;;;;9.43;4.40;;;;;;;;;;4967839;28;96167;-66
2022/03/18 01:48:07;;;;;;;14.32;4.82;;;;;;;;;;4974071;28;92387;-66
2022/03/18 01:50:33;;;;;;;14.75;3.85;;;;;;;;;;4974504;28;93347;-67
2022/03/18 01:53:00;;;;;;;11.10;4.47;;;;;;;;;;4970073;28;93297;-66
2022/03/18 01:55:26;;;;;;;8.55;3.53;;;;;;;;;;4968098;28;92863;-66
2022/03/18 01:57:52;;;;;;;18.52;3.58;;;;;;;;;;4973503;28;93159;-66
2022/03/18 02:00:19;;;;;;;16.17;3.83;;;;;;;;;;4968899;28;94127;-66
2022/03/18 02:02:46;;;;;;;9.40;3.45;;;;;;;;;;4972748;28;93039;-66
2022/03/18 02:05:13;;;;;;;10.63;3.45;;;;;;;;;;4969946;28;93737;-66
2022/03/18 02:07:39;;;;;;;14.23;3.15;;;;;;;;;;4961217;28;92586;-67
2022/03/18 02:10:07;;;;;;;15.95;4.57;;;;;;;;;;4972930;28;95880;-66
2022/03/18 02:12:33;;;;;;;10.48;3.70;;;;;;;;;;4967452;28;93349;-66
2022/03/18 02:14:59;;;;;;;7.95;3.83;;;;;;;;;;4960796;28;92481;-66
2022/03/18 02:17:26;;;;;;;7.30;3.53;;;;;;;;;;4970131;28;93153;-66
2022/03/18 02:19:52;;;;;;;9.40;3.60;;;;;;;;;;4973644;28;93403;-66
2022/03/18 02:22:20;;;;;;;7.55;3.83;;;;;;;;;;4967827;28;92580;-66
2022/03/18 02:24:47;;;;;;;10.38;3.40;;;;;;;;;;4972497;28;93633;-66
2022/03/18 02:27:13;;;;;;;13.60;4.07;;;;;;;;;;4972995;28;91908;-66
2022/03/18 02:29:40;;;;;;;13.48;3.75;;;;;;;;;;4973106;28;92644;-66
2022/03/18 02:32:10;;;;;;;6.88;3.58;;;;;;;;;;4965463;28;92615;-66
2022/03/18 02:34:37;;;;;;;7.47;3.10;;;;;;;;;;4972535;28;94888;-66
2022/03/18 02:37:04;;;;;;;10.77;3.75;;;;;;;;;;4969019;28;95645;-66
2022/03/18 02:39:30;;;;;;;7.75;3.30;;;;;;;;;;4960567;28;93513;-66
2022/03/18 02:41:57;;;;;;;9.00;3.13;;;;;;;;;;4962051;28;92512;-66
2022/03/18 02:44:23;;;;;;;11.00;3.90;;;;;;;;;;4976712;28;95215;-66
2022/03/18 02:46:50;;;;;;;12.20;4.70;;;;;;;;;;4973320;28;92771;-66
2022/03/18 02:49:17;;;;;;;10.57;4.43;;;;;;;;;;4972613;28;94356;-66
2022/03/18 02:51:43;;;;;;;8.38;3.28;;;;;;;;;;4971008;28;95257;-66
2022/03/18 02:54:12;;;;;;;11.90;4.07;;;;;;;;;;4971702;28;92632;-66
2022/03/18 02:56:39;;;;;;;11.05;4.15;;;;;;;;;;4966192;28;93276;-66
2022/03/18 02:59:05;;;;;;;14.93;4.05;;;;;;;;;;4974864;28;95884;-66
2022/03/18 03:01:31;;;;;;;10.95;4.35;;;;;;;;;;4972814;28;92472;-66
2022/03/18 03:03:59;;;;;;;13.52;3.90;;;;;;;;;;4963077;28;93329;-66
2022/03/18 03:09:11;;;;;;;8.10;3.83;;;;;;;;;;4973661;28;93207;-66
2022/03/18 03:11:37;;;;;;;8.43;4.40;;;;;;;;;;4960324;28;94176;-66
2022/03/18 03:14:08;;;;;;;14.45;3.65;;;;;;;;;;4970114;28;93538;-66
2022/03/18 03:16:34;;;;;;;7.70;3.08;;;;;;;;;;4968289;28;93236;-66
2022/03/18 03:19:02;;;;;;;10.13;3.35;;;;;;;;;;4973097;28;93401;-66
2022/03/18 03:21:28;;;;;;;19.13;3.67;;;;;;;;;;4960346;28;92624;-66
2022/03/18 03:23:55;;;;;;;10.02;2.80;;;;;;;;;;4963506;28;94920;-67
2022/03/18 03:26:21;;;;;;;13.20;3.60;;;;;;;;;;4963937;28;93256;-67
2022/03/18 03:28:47;;;;;;;13.07;4.10;;;;;;;;;;4972948;28;93207;-66
2022/03/18 03:31:13;;;;;;;13.07;3.10;;;;;;;;;;4972937;28;93082;-66
2022/03/18 03:33:40;;;;;;;13.75;3.70;;;;;;;;;;4957706;28;93204;-66
2022/03/18 03:36:07;;;;;;;11.02;3.28;;;;;;;;;;4972238;28;93210;-66
2022/03/18 03:38:34;;;;;;;9.57;4.20;;;;;;;;;;4972074;28;93508;-66
2022/03/18 03:41:00;;;;;;;9.82;3.10;;;;;;;;;;4972683;28;91788;-66
2022/03/18 03:43:26;;;;;;;11.82;3.58;;;;;;;;;;4968780;28;92456;-66
2022/03/18 03:45:53;;;;;;;10.90;3.40;;;;;;;;;;4972964;28;93288;-67
2022/03/18 03:48:19;;;;;;;17.40;4.22;;;;;;;;;;4974379;28;95324;-66
2022/03/18 03:50:45;;;;;;;10.70;3.40;;;;;;;;;;4968843;28;93191;-66
2022/03/18 03:53:12;;;;;;;6.07;2.97;;;;;;;;;;4965490;28;92962;-66
2022/03/18 03:55:39;;;;;;;11.77;3.20;;;;;;;;;;4970796;28;93243;-66
2022/03/18 03:58:06;;;;;;;14.43;3.53;;;;;;;;;;4972544;28;93630;-66
2022/03/18 04:00:33;;;;;;;12.05;3.60;;;;;;;;;;4972490;28;92570;-65
2022/03/18 04:02:59;;;;;;;9.07;3.20;;;;;;;;;;4964072;28;93115;-65
2022/03/18 04:05:26;;;;;;;6.97;3.40;;;;;;;;;;4963896;28;92641;-66
2022/03/18 04:07:52;;;;;;;11.82;3.63;;;;;;;;;;4957416;28;92474;-65
2022/03/18 04:10:20;;;;;;;10.63;3.35;;;;;;;;;;4972203;28;93290;-66
2022/03/18 04:12:46;;;;;;;12.85;3.78;;;;;;;;;;4964335;28;94873;-65
2022/03/18 04:15:13;;;;;;;11.00;3.38;;;;;;;;;;4972440;28;94364;-65
2022/03/18 04:17:40;;;;;;;7.40;2.72;;;;;;;;;;4965768;28;93612;-66
2022/03/18 04:20:09;;;;;;;12.73;3.17;;;;;;;;;;4970053;28;93166;-66
2022/03/18 04:22:35;;;;;;;6.95;2.97;;;;;;;;;;4963154;28;93323;-66
2022/03/18 04:25:02;;;;;;;11.25;3.00;;;;;;;;;;4970651;28;93287;-66
2022/03/18 04:27:28;;;;;;;11.18;3.58;;;;;;;;;;4966335;28;92484;-66
2022/03/18 04:29:55;;;;;;;8.75;3.00;;;;;;;;;;4959590;28;93269;-66
2022/03/18 04:32:21;;;;;;;12.88;3.40;;;;;;;;;;4964395;28;93343;-66
2022/03/18 04:34:47;;;;;;;11.23;3.47;;;;;;;;;;4971459;28;93296;-66
2022/03/18 04:37:13;;;;;;;10.95;3.22;;;;;;;;;;4972557;28;95877;-66
2022/03/18 04:39:40;;;;;;;9.82;3.42;;;;;;;;;;4976198;28;94673;-67
2022/03/18 04:42:06;;;;;;;9.70;3.60;;;;;;;;;;4969261;28;93115;-66
2022/03/18 04:44:33;;;;;;;10.48;3.55;;;;;;;;;;4974261;28;93221;-66
2022/03/18 04:46:59;;;;;;;11.05;3.00;;;;;;;;;;4974675;28;92604;-66
2022/03/18 04:49:25;;;;;;;11.25;2.88;;;;;;;;;;4972547;28;93256;-66
2022/03/18 04:51:52;;;;;;;4.35;2.80;;;;;;;;;;4971983;28;93325;-66
2022/03/18 04:54:18;;;;;;;11.55;3.33;;;;;;;;;;4978516;28;91856;-66
2022/03/18 04:59:29;;;;;;;8.95;3.20;;;;;;;;;;4965121;28;92414;-66
2022/03/18 05:01:55;;;;;;;9.60;3.20;;;;;;;;;;4967992;28;94879;-66
2022/03/18 05:04:22;;;;;;;10.73;3.35;;;;;;;;;;4961121;28;94022;-66
2022/03/18 05:06:49;;;;;;;11.35;3.63;;;;;;;;;;4973161;28;92500;-66
2022/03/18 05:09:16;;;;;;;12.88;3.75;;;;;;;;;;4974888;28;93285;-65
2022/03/18 05:11:42;;;;;;;16.65;3.58;;;;;;;;;;4974920;28;93633;-66
2022/03/18 05:14:08;;;;;;;6.80;3.15;;;;;;;;;;4975230;28;92474;-66
2022/03/18 05:16:35;;;;;;;7.97;2.65;;;;;;;;;;4978468;28;93092;-66
2022/03/18 05:19:01;;;;;;;11.07;3.05;;;;;;;;;;4963041;28;93121;-66
2022/03/18 05:21:28;;;;;;;10.75;3.45;;;;;;;;;;4964279;28;92921;-66
2022/03/18 05:23:54;;;;;;;14.00;3.80;;;;;;;;;;4974473;28;93298;-66
2022/03/18 05:26:21;;;;;;;8.65;3.22;;;;;;;;;;4974007;28;94838;-66
2022/03/18 05:28:47;;;;;;;5.13;2.92;;;;;;;;;;4972427;28;95929;-66
2022/03/18 05:31:13;;;;;;;15.82;3.58;;;;;;;;;;4973460;28;93648;-67
2022/03/18 05:33:40;;;;;;;13.88;3.42;;;;;;;;;;4966040;28;92720;-67
2022/03/18 05:36:06;;;;;;;6.47;3.00;;;;;;;;;;4976074;28;96060;-66
2022/03/18 05:38:32;;;;;;;11.85;3.75;;;;;;;;;;4975020;28;92393;-66
2022/03/18 05:40:59;;;;;;;10.23;3.60;;;;;;;;;;4974851;28;92966;-67
2022/03/18 05:43:25;;;;;;;13.30;3.42;;;;;;;;;;4974580;28;92511;-66
2022/03/18 05:45:51;;;;;;;9.23;3.40;;;;;;;;;;4973975;28;94562;-66
2022/03/18 05:48:18;;;;;;;6.50;3.33;;;;;;;;;;4973260;28;96188;-66
2022/03/18 05:50:44;;;;;;;14.45;4.22;;;;;;;;;;4972179;28;96325;-66
2022/03/18 05:53:12;;;;;;;7.13;2.80;;;;;;;;;;4966369;28;92607;-67
2022/03/18 05:58:23;;;;;;;10.38;3.38;;;;;;;;;;4970574;28;93506;-66
2022/03/18 06:00:49;;;;;;;10.80;3.40;;;;;;;;;;4968963;28;92955;-66
2022/03/18 06:03:15;;;;;;;9.75;3.25;;;;;;;;;;4972147;28;93318;-66
2022/03/18 06:05:42;;;;;;;16.73;3.83;;;;;;;;;;4971965;28;92473;-66
2022/03/18 06:13:41;;;;;;;9.30;3.30;;;;;;;;;;4965398;28;92436;-66
2022/03/18 06:16:07;;;;;;;7.40;3.17;;;;;;;;;;4971551;28;94984;-66
2022/03/18 06:18:38;;;;;;;11.95;3.30;;;;;;;;;;4966626;28;93651;-66
2022/03/18 06:21:05;;;;;;;15.98;3.28;;;;;;;;;;4976149;28;92537;-66
2022/03/18 06:23:32;;;;;;;21.17;3.47;;;;;;;;;;4974007;28;93087;-66
2022/03/18 06:25:58;;;;;;;9.57;3.28;;;;;;;;;;4972327;28;92595;-66
2022/03/18 06:28:24;;;;;;;13.63;3.33;;;;;;;;;;4972954;28;93455;-66
2022/03/18 06:30:51;;;;;;;11.55;3.00;;;;;;;;;;4965171;28;93597;-66
2022/03/18 06:33:17;;;;;;;19.08;4.45;;;;;;;;;;4963322;28;91858;-66
2022/03/18 06:35:43;;;;;;;15.68;3.97;;;;;;;;;;4974257;28;92445;-66
2022/03/18 06:38:10;;;;;;;10.73;3.53;;;;;;;;;;4969715;28;93500;-66
2022/03/18 06:40:36;;;;;;;7.13;3.50;;;;;;;;;;4971565;28;94958;-66
2022/03/18 06:43:02;;;;;;;8.50;3.30;;;;;;;;;;4974893;28;95534;-66
2022/03/18 06:45:29;;;;;;;19.95;4.30;;;;;;;;;;4974608;28;92470;-66
2022/03/18 06:47:55;;;;;;;8.52;4.10;;;;;;;;;;4969452;28;94263;-66
2022/03/18 06:50:22;;;;;;;13.80;4.38;;;;;;;;;;4965679;28;94147;-66
2022/03/18 06:52:48;;;;;;;18.85;5.63;;;;;;;;;;4959810;28;92520;-66
2022/03/18 06:55:15;;;;;;;11.20;4.70;;;;;;;;;;4973851;28;92438;-66
2022/03/18 06:57:42;;;;;;;15.68;6.97;;;;;;;;;;4972639;28;91723;-66
2022/03/18 07:00:09;;;;;;;11.30;5.57;;;;;;;;;;4972620;28;92484;-66
2022/03/18 07:02:35;;;;;;;19.35;6.53;;;;;;;;;;4960880;28;93706;-67
2022/03/18 07:05:02;;;;;;;10.10;4.95;;;;;;;;;;4967792;28;96786;-66
2022/03/18 07:07:28;;;;;;;11.30;5.40;;;;;;;;;;4955013;28;95862;-67
2022/03/18 07:09:54;;;;;;;10.20;4.75;;;;;;;;;;4972607;28;93294;-66
2022/03/18 07:12:21;;;;;;;10.07;4.50;;;;;;;;;;4971518;28;92724;-66
2022/03/18 07:14:47;;;;;;;12.23;5.47;;;;;;;;;;4963823;28;93166;-66
2022/03/18 07:19:58;;;;;;;11.68;4.75;;;;;;;;;;4953607;28;92901;-67
2022/03/18 07:22:25;;;;;;;16.70;6.05;;;;;;;;;;4966570;28;92912;-66
2022/03/18 07:24:51;;;;;;;13.00;5.28;;;;;;;;;;4960751;28;94070;-66
2022/03/18 07:27:17;;;;;;;17.80;5.78;;;;;;;;;;4973506;28;92420;-67
2022/03/18 07:29:43;;;;;;;17.05;5.72;;;;;;;;;;4959860;28;95621;-66
2022/03/18 07:32:10;;;;;;;11.55;5.55;;;;;;;;;;4965013;28;92838;-66
2022/03/18 07:34:37;;;;;;;19.92;6.32;;;;;;;;;;4973048;28;93314;-67
2022/03/18 07:37:03;;;;;;;13.00;5.57;;;;;;;;;;4972982;28;97253;-67
2022/03/18 07:39:30;;;;;;;18.17;5.90;;;;;;;;;;4973388;28;92962;-66
2022/03/18 07:41:56;;;;;;;24.13;5.68;;;;;;;;;;4972460;28;93477;-67
2022/03/18 07:44:22;;;;;;;23.75;6.00;;;;;;;;;;4964382;28;93525;-66
2022/03/18 07:46:49;;;;;;;17.58;5.75;;;;;;;;;;4972519;28;91759;-68
2022/03/18 07:49:15;;;;;;;21.92;5.80;;;;;;;;;;4964377;28;93438;-67
2022/03/18 07:51:41;;;;;;;9.98;5.63;;;;;;;;;;4969724;28;92433;-67
2022/03/18 07:54:07;;;;;;;24.50;5.72;;;;;;;;;;4955539;28;94943;-67
2022/03/18 07:56:34;;;;;;;16.23;6.75;;;;;;;;;;4957008;28;94521;-66
2022/03/18 07:59:00;;;;;;;24.73;8.50;;;;;;;;;;4972657;28;92525;-71
2022/03/18 08:01:27;;;;;;;29.38;8.48;;;;;;;;;;4967856;28;93981;-71
2022/03/18 08:03:53;;;;;;;21.77;8.23;;;;;;;;;;4955136;28;93545;-71
2022/03/18 08:06:20;;;;;;;29.45;7.53;;;;;;;;;;4972663;28;92442;-72
2022/03/18 08:08:46;;;;;;;19.30;7.55;;;;;;;;;;4970734;28;93219;-72
2022/03/18 08:11:13;;;;;;;21.52;8.48;;;;;;;;;;4974299;28;92750;-71
2022/03/18 08:13:49;;;;;;;20.15;8.25;;;;;;;;;;4972115;28;93252;-72
2022/03/18 08:16:15;;;;;;;20.48;8.10;;;;;;;;;;4972382;28;93888;-72
2022/03/18 08:18:42;;;;;;;23.75;9.63;;;;;;;;;;4969062;28;94940;-71
2022/03/18 08:21:08;;;;;;;27.08;9.48;;;;;;;;;;4963789;28;97826;-70
2022/03/18 08:23:35;;;;;;;26.73;8.43;;;;;;;;;;4966656;28;93567;-70
2022/03/18 08:26:01;;;;;;;22.25;9.43;;;;;;;;;;4962124;28;93959;-70
2022/03/18 08:28:27;;;;;;;17.65;8.73;;;;;;;;;;4962905;28;92903;-70
2022/03/18 08:30:53;;;;;;;17.65;8.73;;;;;;;;;;4982508;28;93373;-71
2022/03/18 08:33:20;;;;;;;20.08;7.38;;;;;;;;;;4992149;28;93527;-70
2022/03/18 08:35:48;;;;;;;22.20;7.40;;;;;;;;;;4980461;28;92745;-70
2022/03/18 08:38:14;;;;;;;23.50;7.95;;;;;;;;;;4972353;28;92575;-70
2022/03/18 08:40:41;;;;;;;20.65;7.30;;;;;;;;;;4957871;28;92672;-70
2022/03/18 08:43:11;;;;;;;12.88;6.15;;;;;;;;;;4977598;28;95854;-70
2022/03/18 08:45:37;;;;;;;13.18;5.82;;;;;;;;;;4986818;28;92898;-70
2022/03/18 08:48:04;;;;;;;18.25;6.18;;;;;;;;;;4971140;28;93741;-70
2022/03/18 08:50:31;;;;;;;20.05;6.00;;;;;;;;;;4971836;28;93987;-70
2022/03/18 08:52:57;;;;;;;14.13;5.55;;;;;;;;;;4977630;28;92584;-71
2022/03/18 08:55:24;;;;;;;16.35;6.07;;;;;;;;;;4977810;28;94479;-70
2022/03/18 08:57:50;;;;;;;13.02;4.97;;;;;;;;;;4974615;28;92529;-70
2022/03/18 09:00:17;;;;;;;10.43;4.95;;;;;;;;;;4972792;28;93126;-70
2022/03/18 09:02:45;;;;;;;14.30;5.72;;;;;;;;;;4970433;28;93605;-70
2022/03/18 09:05:12;;;;;;;19.15;5.93;;;;;;;;;;4979486;28;92466;-70
2022/03/18 09:07:38;;;;;;;17.75;4.65;;;;;;;;;;4983532;28;95112;-70
2022/03/18 09:10:06;;;;;;;15.35;5.20;;;;;;;;;;4971943;28;95049;-71
2022/03/18 09:12:32;;;;;;;14.57;5.85;;;;;;;;;;4953226;28;92509;-70
2022/03/18 09:14:58;;;;;;;19.67;5.75;;;;;;;;;;4960539;28;93245;-70
2022/03/18 09:17:25;;;;;;;24.95;6.10;;;;;;;;;;4972044;28;92405;-71
2022/03/18 09:19:51;;;;;;;13.48;5.65;;;;;;;;;;4971930;28;94089;-70
2022/03/18 09:22:19;;;;;;;14.93;4.70;;;;;;;;;;4958544;28;93601;-71
2022/03/18 09:24:46;;;;;;;15.27;4.05;;;;;;;;;;4964058;28;92858;-71
2022/03/18 09:27:14;;;;;;;14.35;4.30;;;;;;;;;;4971788;28;93924;-71
2022/03/18 09:29:40;;;;;;;9.00;3.60;;;;;;;;;;4974662;28;93650;-71
2022/03/18 09:32:07;;;;;;;18.58;4.75;;;;;;;;;;4966665;28;95349;-72
2022/03/18 09:34:34;;;;;;;15.90;4.80;;;;;;;;;;4963904;28;96602;-71
2022/03/18 09:37:02;;;;;;;17.27;5.38;;;;;;;;;;4970268;28;92574;-72
2022/03/18 09:39:28;;;;;;;14.15;4.63;;;;;;;;;;4973743;28;93313;-70
2022/03/18 09:42:00;;;;;;;13.88;4.78;;;;;;;;;;4970333;28;93621;-70
2022/03/18 09:44:34;;;;;;;16.80;4.65;;;;;;;;;;4969275;28;93360;-70
2022/03/18 09:47:01;;;;;;;13.43;4.68;;;;;;;;;;4972283;28;93558;-70
2022/03/18 09:49:28;;;;;;;13.43;5.00;;;;;;;;;;4972489;28;93631;-70
2022/03/18 09:51:54;;;;;;;18.10;4.50;;;;;;;;;;4958054;28;94329;-69
2022/03/18 09:54:20;;;;;;;17.70;5.15;;;;;;;;;;4966054;28;94792;-69
2022/03/18 09:56:47;;;;;;;15.13;4.45;;;;;;;;;;4961572;28;97297;-68
2022/03/18 09:59:14;;;;;;;12.45;4.05;;;;;;;;;;4954951;28;96961;-68
2022/03/18 10:01:41;;;;;;;18.08;4.57;;;;;;;;;;4970028;28;93525;-68
2022/03/18 10:04:10;;;;;;;16.70;4.15;;;;;;;;;;4964181;28;94389;-68
2022/03/18 10:06:38;;;;;;;16.95;4.68;;;;;;;;;;4964797;28;93348;-67
2022/03/18 10:09:05;;;;;;;17.80;5.72;;;;;;;;;;4967688;28;93904;-68
2022/03/18 10:11:32;;;;;;;15.77;5.07;;;;;;;;;;4969265;28;92514;-69
2022/03/18 10:14:01;;;;;;;18.50;5.45;;;;;;;;;;4968104;28;93170;-68
2022/03/18 10:16:32;;;;;;;14.30;4.57;;;;;;;;;;4967131;28;93784;-68
2022/03/18 10:18:59;;;;;;;16.10;4.70;;;;;;;;;;4974276;28;93779;-69
2022/03/18 10:21:25;;;;;;;16.63;5.60;;;;;;;;;;4961929;28;95874;-68
2022/03/18 10:24:04;;;;;;;15.75;4.97;;;;;;;;;;4972424;28;92514;-68
2022/03/18 10:26:33;;;;;;;12.23;4.95;;;;;;;;;;4974016;28;93054;-68
2022/03/18 10:29:00;;;;;;;26.95;6.05;;;;;;;;;;4973214;28;93224;-69
2022/03/18 10:31:27;;;;;;;14.13;5.32;;;;;;;;;;4973860;28;92494;-68
2022/03/18 10:39:28;;;;;;;14.88;5.28;;;;;;;;;;4973331;28;91767;-68
2022/03/18 10:41:55;;;;;;;11.70;5.32;;;;;;;;;;4976538;28;94186;-68
2022/03/18 10:44:21;;;;;;;13.88;5.03;;;;;;;;;;4974557;28;92771;-68
2022/03/18 10:46:49;;;;;;;12.40;5.22;;;;;;;;;;4972524;28;95391;-68
2022/03/18 10:49:16;;;;;;;14.73;4.75;;;;;;;;;;4973161;28;95866;-69
2022/03/18 10:51:43;;;;;;;15.57;5.38;;;;;;;;;;4973155;28;92454;-68
2022/03/18 10:54:09;;;;;;;12.02;4.82;;;;;;;;;;4958155;28;93077;-69
2022/03/18 10:56:51;;;;;;;12.95;4.50;;;;;;;;;;4953950;28;93921;-68
2022/03/18 10:59:18;;;;;;;15.85;4.80;;;;;;;;;;4971984;28;92543;-68
2022/03/18 11:01:47;;;;;;;13.63;4.70;;;;;;;;;;4972207;28;92893;-69
2022/03/18 11:04:15;;;;;;;13.40;5.00;;;;;;;;;;4976451;28;93157;-69
2022/03/18 11:06:42;;;;;;;14.13;4.60;;;;;;;;;;4971772;28;92483;-68
2022/03/18 11:09:11;;;;;;;16.75;4.43;;;;;;;;;;4972380;28;93290;-69
2022/03/18 11:11:39;;;;;;;12.10;4.70;;;;;;;;;;4971647;28;94922;-69
2022/03/18 11:14:09;;;;;;;11.90;4.20;;;;;;;;;;4971096;28;95754;-68
2022/03/18 11:16:38;;;;;;;19.00;4.50;;;;;;;;;;4972148;28;93469;-70
2022/03/18 11:19:10;;;;;;;14.50;4.30;;;;;;;;;;4968027;28;92804;-69
2022/03/18 11:21:40;;;;;;;28.45;4.57;;;;;;;;;;4973355;28;93309;-69
2022/03/18 11:24:07;;;;;;;13.33;4.23;;;;;;;;;;4972617;28;93723;-68
2022/03/18 11:26:35;;;;;;;16.23;4.80;;;;;;;;;;4976204;28;92613;-69
2022/03/18 11:29:09;;;;;;;14.57;4.18;;;;;;;;;;4968854;28;92910;-69
2022/03/18 11:31:36;;;;;;;13.82;4.43;;;;;;;;;;4973388;28;92574;-69
2022/03/18 11:34:07;;;;;;;13.63;4.60;;;;;;;;;;4955792;28;93658;-69
2022/03/18 11:36:34;;;;;;;14.75;4.43;;;;;;;;;;4957406;28;95964;-69
2022/03/18 11:39:02;;;;;;;13.52;3.88;;;;;;;;;;4971848;28;92574;-69
2022/03/18 11:41:49;;;;;;;11.57;3.63;;;;;;;;;;4973342;28;93499;-69
2022/03/18 11:44:42;;;;;;;13.18;3.53;;;;;;;;;;4956261;28;93517;-69
2022/03/18 11:47:27;;;;;;;14.27;3.72;;;;;;;;;;4974221;28;92613;-69
2022/03/18 11:50:34;;;;;;;9.88;3.80;;;;;;;;;;4970697;28;93821;-69
2022/03/18 11:53:00;;;;;;;16.73;4.40;;;;;;;;;;4970149;28;92917;-69
2022/03/18 11:55:27;;;;;;;10.30;3.40;;;;;;;;;;4973175;28;93985;-70
2022/03/18 11:58:26;;;;;;;10.60;3.33;;;;;;;;;;4966202;28;95531;-69
2022/03/18 12:00:53;;;;;;;12.02;3.92;;;;;;;;;;4952747;28;93072;-70
2022/03/18 12:03:21;;;;;;;11.75;3.65;;;;;;;;;;4959432;28;95158;-70
2022/03/18 12:05:52;;;;;;;13.32;4.07;;;;;;;;;;4971158;28;93279;-70
2022/03/18 12:08:18;;;;;;;14.70;4.38;;;;;;;;;;4966566;28;92663;-70
2022/03/18 12:10:45;;;;;;;11.75;3.58;;;;;;;;;;4955910;28;93373;-69
2022/03/18 12:13:11;;;;;;;9.93;3.47;;;;;;;;;;4974137;28;92611;-70
2022/03/18 12:15:38;;;;;;;11.82;4.10;;;;;;;;;;4962026;28;93163;-70
2022/03/18 12:18:04;;;;;;;11.80;3.55;;;;;;;;;;4970585;28;93539;-69
2022/03/18 12:20:51;;;;;;;11.60;3.08;;;;;;;;;;4967703;28;91808;-69
2022/03/18 12:23:17;;;;;;;13.30;3.15;;;;;;;;;;4956713;28;92679;-70
2022/03/18 12:25:44;;;;;;;7.38;2.72;;;;;;;;;;4972292;28;93726;-69
2022/03/18 12:28:10;;;;;;;7.82;3.17;;;;;;;;;;4962213;28;95085;-70
2022/03/18 12:30:37;;;;;;;5.47;2.40;;;;;;;;;;4970221;28;95990;-70
2022/03/18 12:33:05;;;;;;;7.82;2.90;;;;;;;;;;4973241;28;94323;-70
2022/03/18 12:35:35;;;;;;;10.30;2.88;;;;;;;;;;4971502;28;93573;-69
2022/03/18 12:38:11;;;;;;;11.18;3.67;;;;;;;;;;4971176;28;94041;-70
2022/03/18 12:40:40;;;;;;;8.10;2.92;;;;;;;;;;4972164;28;92940;-69
2022/03/18 12:43:07;;;;;;;6.33;2.50;;;;;;;;;;4960660;28;94340;-70
2022/03/18 12:45:36;;;;;;;9.23;2.63;;;;;;;;;;4971154;28;91960;-70
2022/03/18 12:48:06;;;;;;;11.38;3.00;;;;;;;;;;4970531;28;93011;-70
2022/03/18 12:50:36;;;;;;;7.22;3.28;;;;;;;;;;4971332;28;92918;-69
2022/03/18 12:53:18;;;;;;;6.45;3.22;;;;;;;;;;4970026;28;96192;-70
2022/03/18 12:55:46;;;;;;;6.72;2.70;;;;;;;;;;4975564;28;92459;-69
2022/03/18 12:58:13;;;;;;;9.32;2.80;;;;;;;;;;4965267;28;93248;-69
2022/03/18 13:00:40;;;;;;;9.73;3.03;;;;;;;;;;4975175;28;92766;-69
2022/03/18 13:03:19;;;;;;;10.73;3.17;;;;;;;;;;4970757;28;93388;-70
2022/03/18 13:05:46;;;;;;;9.27;2.75;;;;;;;;;;4967600;28;94634;-69
2022/03/18 13:08:16;;;;;;;7.28;2.50;;;;;;;;;;4975078;28;92567;-69
2022/03/18 13:10:43;;;;;;;9.25;3.08;;;;;;;;;;4975489;28;97022;-69
2022/03/18 13:13:10;;;;;;;5.72;2.60;;;;;;;;;;4973783;28;93581;-69
2022/03/18 13:15:40;;;;;;;13.77;3.10;;;;;;;;;;4965247;28;92802;-69
2022/03/18 13:18:11;;;;;;;9.70;3.42;;;;;;;;;;4975799;28;94946;-69
2022/03/18 13:20:37;;;;;;;9.98;2.97;;;;;;;;;;4971772;28;92493;-69
2022/03/18 13:23:03;;;;;;;11.63;3.30;;;;;;;;;;4970941;28;93018;-69
2022/03/18 13:25:30;;;;;;;12.20;2.97;;;;;;;;;;4973770;28;92949;-69
2022/03/18 13:27:56;;;;;;;9.48;3.20;;;;;;;;;;4974288;28;92479;-69
2022/03/18 13:33:10;;;;;;;9.88;3.40;;;;;;;;;;4956761;28;93793;-69
2022/03/18 13:35:45;;;;;;;10.93;3.20;;;;;;;;;;4965626;28;92661;-69
2022/03/18 13:38:16;;;;;;;9.85;2.95;;;;;;;;;;4938174;28;92564;-69
2022/03/18 13:40:59;;;;;;;6.63;2.70;;;;;;;;;;4959121;28;93278;-70
2022/03/18 13:43:29;;;;;;;11.20;3.65;;;;;;;;;;4971299;28;94793;-69
2022/03/18 13:46:15;;;;;;;8.55;2.85;;;;;;;;;;4973341;28;94848;-69
2022/03/18 13:48:42;;;;;;;9.90;2.90;;;;;;;;;;4971635;28;93876;-69
2022/03/18 13:51:09;;;;;;;16.52;2.80;;;;;;;;;;4974702;28;94515;-70
2022/03/18 13:53:37;;;;;;;9.73;2.70;;;;;;;;;;4974797;28;93399;-69
2022/03/18 13:56:14;;;;;;;15.88;3.13;;;;;;;;;;4973532;28;92477;-69
2022/03/18 13:58:40;;;;;;;8.68;2.70;;;;;;;;;;4974087;28;93265;-69
2022/03/18 14:01:11;;;;;;;14.80;3.10;;;;;;;;;;4977625;28;92764;-68
2022/03/18 14:03:39;;;;;;;11.80;3.33;;;;;;;;;;4971440;28;92847;-68
2022/03/18 14:06:05;;;;;;;12.02;3.25;;;;;;;;;;4970244;28;94557;-68
2022/03/18 14:08:38;;;;;;;9.38;3.05;;;;;;;;;;4972445;28;94884;-68
2022/03/18 14:12:08;;;;;;;10.25;3.00;;;;;;;;;;4972893;28;96410;-68
2022/03/18 14:13:52;;;;;;;9.48;2.70;;;;;;;;;;4954118;28;95025;-68
2022/03/18 14:16:20;;;;;;;17.20;3.33;;;;;;;;;;4967101;28;92613;-69
2022/03/18 14:18:46;;;;;;;10.15;2.45;;;;;;;;;;4966771;28;93591;-69
2022/03/18 14:21:15;;;;;;;6.60;2.40;;;;;;;;;;4963390;28;94295;-69
2022/03/18 14:23:42;;;;;;;5.82;2.58;;;;;;;;;;4976054;28;92537;-70
2022/03/18 14:26:10;;;;;;;11.07;2.67;;;;;;;;;;4974513;28;92781;-69
2022/03/18 14:28:37;;;;;;;8.43;2.67;;;;;;;;;;4973985;28;92395;-68
2022/03/18 14:31:06;;;;;;;6.82;2.90;;;;;;;;;;4973188;28;93122;-68
2022/03/18 14:33:34;;;;;;;15.10;2.75;;;;;;;;;;4971155;28;96404;-68
2022/03/18 14:36:01;;;;;;;7.07;2.50;;;;;;;;;;4970028;28;92711;-69
2022/03/18 14:38:28;;;;;;;7.88;2.55;;;;;;;;;;4974407;28;92935;-68
2022/03/18 14:40:56;;;;;;;8.15;2.65;;;;;;;;;;4966933;28;93481;-69
2022/03/18 14:43:22;;;;;;;10.55;2.72;;;;;;;;;;4954530;28;92524;-68
2022/03/18 14:45:49;;;;;;;10.85;3.28;;;;;;;;;;4972261;28;93930;-68
2022/03/18 14:48:15;;;;;;;9.10;2.85;;;;;;;;;;4972859;28;92913;-68
2022/03/18 14:50:42;;;;;;;9.65;2.83;;;;;;;;;;4968563;28;92476;-67
2022/03/18 14:53:09;;;;;;;9.57;3.47;;;;;;;;;;4973352;28;93315;-67
2022/03/18 14:58:21;;;;;;;15.38;3.50;;;;;;;;;;4972564;28;95115;-68
2022/03/18 15:00:48;;;;;;;10.73;3.28;;;;;;;;;;4970808;28;93490;-68
2022/03/18 15:03:14;;;;;;;9.80;3.28;;;;;;;;;;4969549;28;93299;-68
2022/03/18 15:05:41;;;;;;;13.68;3.88;;;;;;;;;;4972072;28;93314;-68
2022/03/18 15:08:07;;;;;;;13.23;3.53;;;;;;;;;;4975938;28;93647;-68
2022/03/18 15:10:35;;;;;;;6.75;3.28;;;;;;;;;;4973589;28;93168;-68